Estación Meteorológica Peña el Pijo (Robertgarden) [ 02/03/23 03:17:42 CET ]

Fecha Hora Presion(HPa) Temp (°C) Humedad % Rocio (°C) Viento ( m/s) Direccion Lluvia 1Hora(mm) Lluvia 24H(mm) LLuvia Total(mm)
2012-Jul-18 01:01:23 1020.800 16.3 61 8.8         167.83
2012-Jul-18 02:01:17 1020.800 14.6 61 7.2         167.83
2012-Jul-18 03:01:43 1020.300 13.6 65 7.1         167.83
2012-Jul-18 04:01:42 1020.000 12.8 69 7.3         167.83
2012-Jul-18 05:01:43 1019.400 12.1 71 7.0         167.83
2012-Jul-18 06:01:47 1019.200 11.9 71 6.8         167.83
2012-Jul-18 07:01:17 1019.200 11.1 70 5.9         167.83
2012-Jul-18 08:01:15 1019.000 12.9 70 7.6         167.83
2012-Jul-18 09:01:13 1018.900 19.3 54 9.8         167.83
2012-Jul-18 10:01:12 1018.800 25.3 36 9.1         167.83
2012-Jul-18 11:01:16 1018.400 30.8 22 6.5         167.83
2012-Jul-18 12:01:18 1018.400 31.6 18 4.0         167.83
2012-Jul-18 13:01:14 1018.300 34.1 16 4.1         167.83
2012-Jul-18 14:01:13 1017.400 34.4 18 6.3         167.83
2012-Jul-18 15:01:15 1016.800 33.9 16 3.9 0.7 NNE     167.83
2012-Jul-18 16:01:11 1016.200 34.8 16 4.6 0.6 NE     167.83
2012-Jul-18 17:01:13 1015.700 35.6 15 4.3 2.9 ENE     167.83
2012-Jul-18 18:01:13 1015.300 34.5 17 5.4         167.83
2012-Jul-18 19:01:13 1014.900 32.4 18 4.7 2.2 E     167.83
2012-Jul-18 20:01:15 1015.200 30.2 20 4.8         167.83
2012-Jul-18 21:01:12 1015.200 26.8 24 4.3         167.83
2012-Jul-18 22:01:18 1015.600 24.2 28 4.4         167.83
2012-Jul-18 23:01:13 1015.800 20.9 35 4.8         167.83

Temperatura Máxima:35°    Temperatura Mínima:11°
Presión Máxima:1020.800 Hpa    Presión Mínima:1014.900 Hpa


Volver